Time;durP1;ratioP1;P1;durP2;ratioP2;P2;SDS_P1;SDS_P2;PMS_P1;PMS_P2;Temp;Humidity;BMP_temperature;BMP_pressure;BME280_temperature;BME280_humidity;BME280_pressure;Samples;Min_cycle;Max_cycle;Signal;HPM_P1;HPM_P2
2021/12/05 00:18:28;;;;;;;16.00;1.27;;;6.20;99.90;;;;;;5024436;28;20243;-65
2021/12/05 00:23:46;;;;;;;9.20;1.60;;;6.10;99.90;;;;;;5018588;28;20173;-65
2021/12/05 00:26:17;;;;;;;8.93;1.40;;;6.10;99.90;;;;;;5032974;28;20224;-65
2021/12/05 01:07:00;;;;;;;7.23;1.43;;;6.20;99.90;;;;;;5032202;28;20268;-61
2021/12/05 01:12:18;;;;;;;7.70;1.60;;;6.20;99.90;;;;;;5012544;28;20174;-62
2021/12/05 01:17:12;;;;;;;7.03;1.20;;;6.10;99.90;;;;;;5011728;28;20186;-63
2021/12/05 01:19:38;;;;;;;10.47;1.80;;;6.40;99.90;;;;;;5013871;28;20239;-62
2021/12/05 01:22:07;;;;;;;8.60;1.17;;;6.20;99.90;;;;;;5032034;28;20202;-62
2021/12/05 01:24:53;;;;;;;12.73;1.97;;;6.20;99.90;;;;;;5031743;28;20225;-62
2021/12/05 01:31:01;;;;;;;7.63;1.10;;;6.30;99.90;;;;;;5031437;28;20177;-62
2021/12/05 01:33:08;;;;;;;4.97;0.80;;;6.30;99.90;;;;;;5004217;28;20210;-62
2021/12/05 01:38:29;;;;;;;9.13;1.60;;;6.40;99.90;;;;;;5008834;28;20178;-62
2021/12/05 01:41:11;;;;;;;8.13;1.57;;;6.40;99.90;;;;;;5031439;28;20542;-62
2021/12/05 02:08:36;;;;;;;8.97;1.53;;;6.80;99.90;;;;;;5028221;28;20584;-63
2021/12/05 02:29:37;;;;;;;13.87;1.30;;;7.00;99.90;;;;;;5011221;28;20677;-63
2021/12/05 02:35:32;;;;;;;5.60;1.00;;;7.10;99.90;;;;;;5030889;28;20173;-61
2021/12/05 02:41:05;;;;;;;7.93;1.10;;;7.00;99.90;;;;;;5011004;28;20175;-61
2021/12/05 02:43:35;;;;;;;7.13;1.27;;;7.00;99.90;;;;;;5010934;28;20206;-61
2021/12/05 02:46:03;;;;;;;7.00;1.50;;;7.00;99.90;;;;;;5013029;28;20242;-60
2021/12/05 02:48:34;;;;;;;13.20;1.40;;;7.00;99.90;;;;;;5022921;28;20178;-60
2021/12/05 02:51:03;;;;;;;10.20;1.40;;;7.00;99.90;;;;;;5015252;28;20649;-61
2021/12/05 02:53:40;;;;;;;5.50;1.37;;;7.00;99.90;;;;;;4997366;28;20679;-61
2021/12/05 02:56:08;;;;;;;12.53;1.80;;;7.10;99.90;;;;;;5032523;28;20180;-67
2021/12/05 03:01:15;;;;;;;6.97;1.03;;;7.10;99.90;;;;;;5014970;28;20167;-63
2021/12/05 03:03:41;;;;;;;9.80;1.10;;;7.10;99.90;;;;;;5014843;28;20181;-63
2021/12/05 03:06:23;;;;;;;9.70;1.13;;;7.10;99.90;;;;;;5014622;28;20214;-62
2021/12/05 03:08:54;;;;;;;9.37;1.30;;;7.20;99.90;;;;;;5013137;28;20683;-63
2021/12/05 03:11:23;;;;;;;9.30;1.40;;;7.30;99.90;;;;;;5014395;28;20178;-62
2021/12/05 03:13:49;;;;;;;14.03;1.33;;;7.20;99.90;;;;;;5014497;28;20225;-62
2021/12/05 03:16:17;;;;;;;9.23;1.43;;;7.20;99.90;;;;;;5022139;28;20254;-62
2021/12/05 03:18:43;;;;;;;6.50;1.10;;;7.20;99.90;;;;;;5021871;28;20205;-62
2021/12/05 03:21:10;;;;;;;10.03;1.37;;;7.20;99.90;;;;;;5013303;28;20680;-63
2021/12/05 03:23:39;;;;;;;14.23;1.30;;;7.20;99.90;;;;;;5014540;28;20185;-63
2021/12/05 03:26:11;;;;;;;6.43;1.10;;;7.20;99.90;;;;;;5024806;28;20306;-63
2021/12/05 03:28:37;;;;;;;8.47;1.50;;;7.20;99.90;;;;;;5034263;28;20300;-62
2021/12/05 03:31:05;;;;;;;8.87;1.50;;;7.20;99.90;;;;;;5016390;28;20542;-62
2021/12/05 03:33:32;;;;;;;8.53;1.50;;;7.20;99.90;;;;;;5033706;28;20197;-63
2021/12/05 03:35:58;;;;;;;6.43;1.17;;;7.20;99.90;;;;;;5023963;28;20253;-62
2021/12/05 03:41:39;;;;;;;7.00;1.20;;;7.20;99.90;;;;;;3995912;22;20256;-64
2021/12/05 03:44:07;;;;;;;5.83;1.03;;;7.30;99.90;;;;;;5035290;28;20280;-63
2021/12/05 03:46:34;;;;;;;9.60;1.50;;;7.30;99.90;;;;;;5033491;28;20174;-64
2021/12/05 03:49:05;;;;;;;5.63;1.30;;;7.30;99.90;;;;;;5033823;28;20224;-63
2021/12/05 03:51:34;;;;;;;7.83;1.03;;;7.30;99.90;;;;;;5033831;28;20162;-63
2021/12/05 03:53:59;;;;;;;12.80;1.57;;;7.30;99.90;;;;;;5033510;28;20257;-63
2021/12/05 03:56:26;;;;;;;8.03;1.00;;;7.30;99.90;;;;;;5033172;28;20209;-64
2021/12/05 03:58:53;;;;;;;11.43;1.20;;;7.20;99.90;;;;;;5033326;28;20177;-63
2021/12/05 04:01:19;;;;;;;8.13;1.40;;;7.20;99.90;;;;;;5033586;28;20651;-63
2021/12/05 04:03:48;;;;;;;13.57;1.40;;;7.10;99.90;;;;;;5033570;28;20170;-63
2021/12/05 04:06:17;;;;;;;8.63;1.43;;;7.10;99.90;;;;;;5033511;28;20210;-63
2021/12/05 04:08:42;;;;;;;6.43;1.30;;;7.00;99.90;;;;;;5033632;28;20228;-63
2021/12/05 04:11:13;;;;;;;12.87;1.47;;;7.00;99.90;;;;;;5033420;28;20569;-62
2021/12/05 04:13:40;;;;;;;10.60;1.30;;;7.00;99.90;;;;;;5033319;28;20177;-62
2021/12/05 04:16:07;;;;;;;8.63;1.30;;;7.00;99.90;;;;;;5033210;28;20217;-63
2021/12/05 04:18:34;;;;;;;6.27;1.03;;;7.10;99.90;;;;;;5033408;28;20249;-63
2021/12/05 04:21:00;;;;;;;5.77;1.03;;;7.10;99.90;;;;;;5033236;28;20284;-63
2021/12/05 04:23:27;;;;;;;9.60;1.20;;;7.00;99.90;;;;;;5033182;28;20173;-63
2021/12/05 04:25:53;;;;;;;6.03;0.80;;;7.10;99.90;;;;;;5033131;28;20264;-63
2021/12/05 04:28:22;;;;;;;8.07;1.00;;;7.00;99.90;;;;;;5033202;28;20173;-63
2021/12/05 04:30:48;;;;;;;6.93;1.17;;;7.10;99.90;;;;;;5033177;28;20170;-63
2021/12/05 04:33:14;;;;;;;10.93;1.37;;;7.10;99.90;;;;;;5033025;28;20174;-63
2021/12/05 04:35:40;;;;;;;7.23;0.80;;;7.10;99.90;;;;;;5033064;28;20170;-63
2021/12/05 04:38:06;;;;;;;5.40;0.97;;;7.10;99.90;;;;;;5032906;28;20184;-63
2021/12/05 04:40:33;;;;;;;6.57;1.00;;;7.10;99.90;;;;;;5032786;28;20678;-63
2021/12/05 04:43:00;;;;;;;11.53;0.87;;;7.10;99.90;;;;;;5032932;28;20178;-63
2021/12/05 04:45:30;;;;;;;5.93;0.87;;;7.20;99.90;;;;;;5032621;28;20341;-63
2021/12/05 04:47:56;;;;;;;6.43;0.90;;;7.20;99.90;;;;;;5032675;28;20200;-63
2021/12/05 04:50:23;;;;;;;6.60;0.90;;;7.30;99.90;;;;;;5032849;28;20252;-63
2021/12/05 04:52:50;;;;;;;7.67;1.00;;;7.30;99.90;;;;;;5032398;28;20166;-63
2021/12/05 04:55:16;;;;;;;6.93;1.20;;;7.30;99.90;;;;;;5032692;28;20218;-64
2021/12/05 04:57:43;;;;;;;4.70;1.27;;;7.30;99.90;;;;;;5032563;28;20170;-64
2021/12/05 05:00:19;;;;;;;5.40;0.93;;;7.30;99.90;;;;;;5032607;28;20253;-64
2021/12/05 05:02:44;;;;;;;5.77;0.80;;;7.30;99.90;;;;;;5032379;28;20300;-64
2021/12/05 05:05:11;;;;;;;7.37;1.33;;;7.30;99.90;;;;;;5032018;28;20626;-64
2021/12/05 05:07:40;;;;;;;9.43;1.00;;;7.30;99.90;;;;;;5032380;28;20247;-64
2021/12/05 05:10:20;;;;;;;5.87;1.07;;;7.30;99.90;;;;;;5032307;28;20170;-64
2021/12/05 05:12:46;;;;;;;5.07;0.90;;;7.30;99.90;;;;;;5032152;28;20173;-63
2021/12/05 05:15:15;;;;;;;7.07;1.00;;;7.30;99.90;;;;;;5032129;28;20189;-63
2021/12/05 05:17:41;;;;;;;6.73;0.90;;;7.30;99.90;;;;;;5032330;28;20664;-63
2021/12/05 05:20:49;;;;;;;10.70;1.10;;;7.30;99.90;;;;;;5032110;28;20178;-62
2021/12/05 05:39:37;;;;;;;5.73;0.90;;;7.40;99.90;;;;;;5031808;28;20192;-67
2021/12/05 05:42:38;;;;;;;7.90;1.50;;;7.40;99.90;;;;;;5031018;28;20887;-63
2021/12/05 05:50:19;;;;;;;7.33;1.10;;;7.40;99.90;;;;;;5031678;28;20170;-63
2021/12/05 05:52:46;;;;;;;8.53;1.50;;;7.50;99.90;;;;;;5031295;28;20224;-63
2021/12/05 05:55:12;;;;;;;6.37;1.10;;;7.50;99.90;;;;;;5031195;28;20186;-63
2021/12/05 06:00:16;;;;;;;5.73;1.00;;;7.50;99.90;;;;;;5034180;28;20188;-63
2021/12/05 06:05:29;;;;;;;5.70;0.90;;;7.40;99.90;;;;;;5031205;28;20216;-62
2021/12/05 06:07:55;;;;;;;8.97;1.07;;;7.40;99.90;;;;;;5029892;28;20170;-63
2021/12/05 06:10:24;;;;;;;9.37;1.00;;;7.40;99.90;;;;;;5013449;28;20208;-62
2021/12/05 06:12:50;;;;;;;2.30;0.70;;;7.40;99.90;;;;;;5031266;28;20654;-62
2021/12/05 06:15:17;;;;;;;8.07;1.00;;;7.40;99.90;;;;;;5031136;28;20165;-62
2021/12/05 06:17:44;;;;;;;5.90;1.03;;;7.40;99.90;;;;;;5030984;28;20193;-62
2021/12/05 06:20:15;;;;;;;9.57;1.00;;;7.30;99.90;;;;;;5011966;28;20178;-62
2021/12/05 06:22:42;;;;;;;8.70;0.80;;;7.30;99.90;;;;;;5031171;28;20158;-62
2021/12/05 06:25:13;;;;;;;4.13;0.70;;;7.20;99.90;;;;;;5031056;28;20204;-62
2021/12/05 06:27:39;;;;;;;4.00;0.90;;;7.20;99.90;;;;;;5031089;28;20560;-62
2021/12/05 06:30:14;;;;;;;6.83;0.87;;;7.30;99.90;;;;;;5030873;28;20158;-62
2021/12/05 06:40:58;;;;;;;4.17;0.90;;;7.30;99.90;;;;;;5011449;28;20261;-62
2021/12/05 06:46:18;;;;;;;5.67;0.60;;;7.30;99.90;;;;;;5030707;28;20205;-62
2021/12/05 06:48:45;;;;;;;2.20;0.63;;;7.30;99.90;;;;;;5030567;28;20170;-62
2021/12/05 06:51:13;;;;;;;4.03;0.70;;;7.30;99.90;;;;;;5030892;28;20174;-62
2021/12/05 06:53:39;;;;;;;9.33;1.00;;;7.30;99.90;;;;;;5030532;28;20639;-62
2021/12/05 06:56:06;;;;;;;4.60;1.03;;;7.30;99.90;;;;;;5030393;28;20173;-61
2021/12/05 06:58:35;;;;;;;6.17;0.83;;;7.30;99.90;;;;;;5030779;28;20184;-61
2021/12/05 07:01:04;;;;;;;4.63;0.60;;;7.30;99.90;;;;;;5030573;28;20162;-61
2021/12/05 07:03:29;;;;;;;7.27;0.50;;;7.30;99.90;;;;;;5029945;28;20213;-61
2021/12/05 07:06:02;;;;;;;1.87;0.50;;;7.20;99.90;;;;;;5029459;28;20255;-62
2021/12/05 07:08:33;;;;;;;3.03;0.70;;;7.20;99.90;;;;;;5030149;28;20170;-62
2021/12/05 07:11:15;;;;;;;5.33;0.80;;;7.20;99.90;;;;;;5030040;28;20182;-63
2021/12/05 07:16:40;;;;;;;3.03;0.50;;;7.20;99.90;;;;;;5030645;28;20540;-62
2021/12/05 07:40:23;;;;;;;6.80;0.63;;;7.10;99.90;;;;;;5033169;28;20240;-66
2021/12/05 07:40:29;;;;;;;3.27;0.50;;;7.10;99.90;;;;;;5033323;28;20283;-65
2021/12/05 07:42:58;;;;;;;5.80;0.93;;;7.00;99.90;;;;;;5033573;28;20668;-65
2021/12/05 07:45:34;;;;;;;5.63;0.70;;;7.10;99.90;;;;;;5033687;28;20695;-66
2021/12/05 07:48:18;;;;;;;3.90;0.60;;;7.10;99.90;;;;;;5033478;28;20169;-65
2021/12/05 07:53:42;;;;;;;5.37;0.60;;;7.20;99.90;;;;;;5031890;28;20634;-69
2021/12/05 07:56:15;;;;;;;3.83;0.60;;;7.20;99.90;;;;;;5033308;28;20181;-68
2021/12/05 08:17:39;;;;;;;3.30;0.33;;;7.00;99.90;;;;;;5033102;28;20208;-66
2021/12/05 08:20:09;;;;;;;4.33;0.40;;;7.00;99.90;;;;;;5033143;28;20174;-67
2021/12/05 08:22:35;;;;;;;2.20;0.40;;;7.00;99.90;;;;;;5032644;28;20249;-66
2021/12/05 08:25:09;;;;;;;1.20;0.40;;;7.00;99.90;;;;;;5033005;28;20545;-66
2021/12/05 08:27:38;;;;;;;1.17;0.30;;;7.00;99.90;;;;;;5032526;28;20231;-67
2021/12/05 08:30:09;;;;;;;1.23;0.30;;;6.90;99.90;;;;;;5032703;28;20181;-67
2021/12/05 08:32:55;;;;;;;1.40;0.43;;;6.80;99.90;;;;;;5032322;28;20535;-67
2021/12/05 09:31:25;;;;;;;2.20;0.70;;;7.00;99.90;;;;;;5031414;28;20216;-65
2021/12/05 10:03:35;;;;;;;4.63;1.00;;;7.20;99.90;;;;;;5029527;28;20498;-64
2021/12/05 10:08:44;;;;;;;13.33;1.73;;;7.70;99.90;;;;;;5029157;28;20180;-64
2021/12/05 10:12:11;;;;;;;5.17;0.97;;;7.80;99.90;;;;;;5029075;28;20192;-64
2021/12/05 10:17:00;;;;;;;3.97;0.83;;;7.80;99.90;;;;;;5030813;28;20169;-64
2021/12/05 10:26:23;;;;;;;6.97;1.00;;;7.70;99.90;;;;;;5026191;28;20236;-63
2021/12/05 10:26:25;;;;;;;6.27;1.00;;;7.50;99.90;;;;;;4999735;28;20232;-64
2021/12/05 10:34:39;;;;;;;10.37;1.70;;;7.50;99.90;;;;;;5018414;28;20623;-63
2021/12/05 10:37:14;;;;;;;5.73;0.90;;;7.50;99.90;;;;;;5011176;28;20517;-63
2021/12/05 10:39:40;;;;;;;6.40;1.33;;;7.60;99.90;;;;;;5030026;28;20197;-67
2021/12/05 10:42:36;;;;;;;5.30;1.10;;;7.60;99.90;;;;;;5029270;28;20268;-67
2021/12/05 10:45:03;;;;;;;8.13;0.90;;;7.70;99.90;;;;;;5034360;28;20339;-68
2021/12/05 10:47:40;;;;;;;3.57;1.00;;;7.70;99.90;;;;;;5032374;28;20170;-68
2021/12/05 10:50:31;;;;;;;3.47;0.70;;;7.70;99.90;;;;;;5031434;28;20231;-67
2021/12/05 10:53:35;;;;;;;4.60;0.87;;;7.70;99.90;;;;;;5029979;28;20236;-67
2021/12/05 10:56:21;;;;;;;5.73;1.27;;;7.60;99.90;;;;;;5012642;28;20287;-67
2021/12/05 10:59:09;;;;;;;6.83;1.00;;;7.50;99.90;;;;;;5030553;28;20224;-67
2021/12/05 11:01:55;;;;;;;5.57;1.17;;;7.60;99.90;;;;;;5018000;28;20719;-68
2021/12/05 11:04:24;;;;;;;8.20;1.63;;;7.60;99.90;;;;;;5028791;28;20204;-67
2021/12/05 11:06:59;;;;;;;6.63;1.17;;;7.70;99.90;;;;;;5031620;28;20216;-68
2021/12/05 11:09:29;;;;;;;10.20;1.37;;;7.60;99.90;;;;;;5034449;28;20235;-67
2021/12/05 11:12:08;;;;;;;3.13;0.90;;;7.60;99.90;;;;;;5034172;28;20177;-67
2021/12/05 11:14:48;;;;;;;5.00;1.23;;;7.60;99.90;;;;;;5033962;28;20571;-67
2021/12/05 11:17:31;;;;;;;4.83;0.90;;;7.60;99.90;;;;;;5033435;28;20205;-67
2021/12/05 11:20:12;;;;;;;15.17;1.07;;;7.60;99.90;;;;;;5034307;28;20236;-67
2021/12/05 11:22:40;;;;;;;5.73;1.10;;;7.70;99.90;;;;;;5033481;28;20181;-67
2021/12/05 11:25:10;;;;;;;7.13;1.00;;;7.70;99.90;;;;;;5033076;28;20213;-67
2021/12/05 11:27:38;;;;;;;6.40;1.03;;;7.70;99.90;;;;;;5033882;28;20240;-67
2021/12/05 11:30:18;;;;;;;7.03;0.87;;;7.70;99.90;;;;;;5033566;28;20224;-67
2021/12/05 11:32:47;;;;;;;6.13;1.50;;;7.70;99.90;;;;;;5012825;28;20182;-67
2021/12/05 11:35:25;;;;;;;3.10;0.97;;;7.70;99.90;;;;;;5024838;28;20178;-67
2021/12/05 11:38:20;;;;;;;6.13;1.00;;;7.70;99.90;;;;;;5033882;28;20166;-67
2021/12/05 11:40:58;;;;;;;7.77;0.97;;;7.70;99.90;;;;;;5007116;28;20218;-67
2021/12/05 11:43:35;;;;;;;6.10;1.30;;;7.60;99.90;;;;;;5031815;28;20635;-67
2021/12/05 11:46:11;;;;;;;7.30;1.20;;;7.70;99.90;;;;;;5033401;28;20252;-67
2021/12/05 11:48:45;;;;;;;8.10;1.13;;;7.70;99.90;;;;;;5033788;28;20176;-67
2021/12/05 11:51:25;;;;;;;9.40;1.40;;;7.70;99.90;;;;;;5032840;28;20177;-70
2021/12/05 11:54:01;;;;;;;6.10;1.20;;;7.70;99.90;;;;;;5032439;28;20174;-72
2021/12/05 11:56:29;;;;;;;7.87;1.30;;;7.70;99.90;;;;;;5032589;28;20188;-71
2021/12/05 11:59:33;;;;;;;5.30;0.87;;;7.70;99.90;;;;;;5033222;28;20556;-72
2021/12/05 12:02:05;;;;;;;8.53;1.00;;;7.70;99.90;;;;;;5009893;28;20178;-70
2021/12/05 12:05:03;;;;;;;7.07;1.17;;;7.60;99.90;;;;;;5016505;28;20181;-72
2021/12/05 12:07:39;;;;;;;7.27;1.30;;;7.60;99.90;;;;;;5016314;28;20201;-68
2021/12/05 12:10:31;;;;;;;6.70;1.33;;;7.70;99.90;;;;;;5032344;28;20252;-68
2021/12/05 12:13:05;;;;;;;6.87;1.20;;;7.60;99.90;;;;;;5021452;28;20178;-68
2021/12/05 12:15:32;;;;;;;11.43;1.43;;;7.40;99.90;;;;;;5032806;28;20220;-69
2021/12/05 12:18:07;;;;;;;4.83;0.90;;;7.60;99.90;;;;;;5031801;28;20636;-68
2021/12/05 12:20:36;;;;;;;9.03;1.23;;;7.60;99.90;;;;;;5032922;28;20184;-68
2021/12/05 12:23:02;;;;;;;8.03;1.03;;;7.60;99.90;;;;;;5033160;28;20196;-68
2021/12/05 12:25:32;;;;;;;11.53;1.30;;;7.60;99.90;;;;;;5032907;28;20660;-68
2021/12/05 12:27:59;;;;;;;6.67;1.10;;;7.60;99.90;;;;;;5032479;28;20168;-68
2021/12/05 12:30:29;;;;;;;9.93;1.53;;;7.60;99.90;;;;;;5032785;28;20201;-68
2021/12/05 12:33:05;;;;;;;9.40;1.63;;;7.50;99.90;;;;;;5032710;28;20162;-72
2021/12/05 12:35:33;;;;;;;8.50;1.80;;;7.50;99.90;;;;;;5019628;28;20643;-68
2021/12/05 12:38:01;;;;;;;10.27;1.33;;;7.50;99.90;;;;;;5040045;28;20243;-68
2021/12/05 12:40:45;;;;;;;6.83;1.80;;;7.50;99.90;;;;;;5031450;28;20275;-68
2021/12/05 12:43:39;;;;;;;7.67;1.37;;;7.50;99.90;;;;;;5032192;28;20730;-67
2021/12/05 12:46:16;;;;;;;5.17;1.03;;;7.50;99.90;;;;;;5032012;28;20293;-68
2021/12/05 12:48:42;;;;;;;9.73;1.27;;;7.60;99.90;;;;;;5032615;28;20185;-68
2021/12/05 12:51:23;;;;;;;4.27;1.07;;;7.60;99.90;;;;;;5032663;28;20182;-69
2021/12/05 12:53:57;;;;;;;4.50;0.83;;;7.60;99.90;;;;;;5032505;28;20648;-68
2021/12/05 12:56:24;;;;;;;7.87;1.17;;;7.70;99.90;;;;;;5030980;28;20214;-69
2021/12/05 12:58:55;;;;;;;7.10;0.93;;;7.70;99.90;;;;;;5030876;28;20177;-68
2021/12/05 13:10:22;;;;;;;5.00;1.03;;;7.80;99.90;;;;;;4998662;28;20194;-69
2021/12/05 13:12:55;;;;;;;5.00;1.07;;;7.80;99.90;;;;;;5031114;28;20232;-69
2021/12/05 13:15:21;;;;;;;4.73;1.03;;;7.80;99.90;;;;;;5030462;28;20532;-69
2021/12/05 13:17:50;;;;;;;3.97;0.87;;;7.80;99.90;;;;;;5029789;28;20274;-70
2021/12/05 13:20:47;;;;;;;7.03;1.00;;;7.80;99.90;;;;;;5023810;28;20181;-70
2021/12/05 13:23:18;;;;;;;7.53;1.20;;;7.90;99.90;;;;;;5031725;28;20166;-69
2021/12/05 13:26:14;;;;;;;3.93;1.10;;;7.90;99.90;;;;;;5029822;28;20252;-69
2021/12/05 13:28:47;;;;;;;4.13;1.07;;;7.90;99.90;;;;;;5030025;28;20180;-69
2021/12/05 13:31:28;;;;;;;5.70;0.80;;;7.80;99.90;;;;;;5031033;28;20185;-69
2021/12/05 13:34:25;;;;;;;3.90;0.97;;;7.80;99.90;;;;;;5031731;28;20176;-70
2021/12/05 13:37:13;;;;;;;3.53;0.83;;;7.80;99.90;;;;;;5031650;28;20162;-69
2021/12/05 13:39:41;;;;;;;4.90;0.73;;;7.80;99.90;;;;;;5014446;28;20174;-69
2021/12/05 13:42:22;;;;;;;2.67;0.67;;;7.90;99.90;;;;;;5030391;28;20225;-69
2021/12/05 13:45:03;;;;;;;5.23;0.80;;;7.90;99.90;;;;;;5027749;28;20705;-68
2021/12/05 13:47:52;;;;;;;4.47;0.87;;;7.80;99.90;;;;;;5030377;28;20212;-68
2021/12/05 13:50:30;;;;;;;4.07;0.70;;;7.80;99.90;;;;;;5021308;28;20648;-68
2021/12/05 13:53:01;;;;;;;5.53;0.73;;;7.90;99.90;;;;;;5031307;28;20192;-68
2021/12/05 13:55:42;;;;;;;5.27;1.00;;;7.90;99.90;;;;;;5031367;28;20174;-69
2021/12/05 13:58:25;;;;;;;4.37;0.80;;;7.90;99.90;;;;;;5013404;28;20664;-69
2021/12/05 14:01:19;;;;;;;3.10;0.83;;;8.00;99.90;;;;;;5030670;28;20672;-68
2021/12/05 14:03:48;;;;;;;7.13;1.17;;;8.20;99.90;;;;;;5030039;28;20871;-68
2021/12/05 14:06:57;;;;;;;7.57;1.67;;;8.50;99.90;;;;;;5030330;28;20209;-71
2021/12/05 14:09:27;;;;;;;9.67;2.10;;;8.70;99.90;;;;;;5031184;28;20177;-71
2021/12/05 14:12:01;;;;;;;9.57;1.77;;;9.00;99.90;;;;;;5031052;28;20177;-71
2021/12/05 14:14:45;;;;;;;5.57;1.30;;;10.10;99.90;;;;;;5030414;28;20181;-71
2021/12/05 14:17:37;;;;;;;5.50;1.20;;;11.10;99.90;;;;;;5030666;28;20185;-72
2021/12/05 14:20:20;;;;;;;5.87;1.17;;;11.40;99.90;;;;;;5031016;28;20174;-71
2021/12/05 14:22:49;;;;;;;5.20;1.13;;;10.90;99.90;;;;;;5030856;28;20169;-71
2021/12/05 14:25:18;;;;;;;3.73;1.00;;;10.40;99.90;;;;;;5030224;28;20353;-66
2021/12/05 14:27:51;;;;;;;4.03;0.90;;;10.20;99.90;;;;;;5020910;28;20888;-65
2021/12/05 14:30:20;;;;;;;4.73;1.00;;;9.90;99.90;;;;;;5041681;28;20261;-66
2021/12/05 14:32:49;;;;;;;5.80;1.27;;;9.40;99.90;;;;;;5030693;28;20192;-65
2021/12/05 14:35:23;;;;;;;6.90;1.37;;;9.30;99.90;;;;;;5030670;28;20182;-65
2021/12/05 14:37:52;;;;;;;6.50;0.90;;;9.10;99.90;;;;;;5030008;28;20188;-65
2021/12/05 14:40:30;;;;;;;7.77;1.07;;;8.90;99.90;;;;;;5025775;28;20716;-65
2021/12/05 14:42:59;;;;;;;4.50;1.00;;;8.80;99.90;;;;;;5036939;28;20176;-65
2021/12/05 14:45:29;;;;;;;4.33;1.00;;;8.70;99.90;;;;;;5037164;28;20213;-65
2021/12/05 14:47:59;;;;;;;9.47;1.20;;;8.50;99.90;;;;;;5036980;28;20208;-65
2021/12/05 14:50:30;;;;;;;7.93;1.13;;;8.50;99.90;;;;;;5037329;28;20174;-65
2021/12/05 14:53:00;;;;;;;7.47;1.00;;;8.50;99.90;;;;;;5037390;28;20166;-65
2021/12/05 14:55:29;;;;;;;4.60;0.77;;;8.50;99.90;;;;;;5037341;28;20284;-65
2021/12/05 14:58:07;;;;;;;10.23;1.30;;;8.40;99.90;;;;;;5036951;28;20180;-65
2021/12/05 15:00:35;;;;;;;3.90;0.87;;;8.40;99.90;;;;;;5036819;28;20251;-64
2021/12/05 15:03:14;;;;;;;7.33;1.30;;;8.30;99.90;;;;;;5036809;28;20235;-65
2021/12/05 15:05:43;;;;;;;6.97;1.53;;;8.20;99.90;;;;;;5036898;28;20220;-64
2021/12/05 15:08:11;;;;;;;8.20;1.43;;;8.20;99.90;;;;;;5036912;28;20177;-64
2021/12/05 15:10:39;;;;;;;5.30;1.27;;;8.20;99.90;;;;;;5036906;28;20174;-65
2021/12/05 15:13:05;;;;;;;5.47;1.07;;;8.20;99.90;;;;;;5036831;28;20165;-64
2021/12/05 15:15:31;;;;;;;4.37;1.20;;;8.10;99.90;;;;;;5036842;28;20232;-64
2021/12/05 15:17:58;;;;;;;4.57;1.07;;;8.10;99.90;;;;;;5019304;28;20174;-64
2021/12/05 15:20:32;;;;;;;14.57;1.80;;;8.10;99.90;;;;;;5036988;28;20197;-64
2021/12/05 15:23:05;;;;;;;2.73;0.90;;;8.00;99.90;;;;;;5036133;28;20170;-65
2021/12/05 15:25:33;;;;;;;7.93;1.30;;;8.00;99.90;;;;;;5036303;28;20313;-65
2021/12/05 15:28:01;;;;;;;5.27;1.00;;;8.00;99.90;;;;;;5021016;28;20182;-65
2021/12/05 15:30:39;;;;;;;2.60;0.90;;;8.00;99.90;;;;;;5046628;28;20170;-65
2021/12/05 15:33:10;;;;;;;9.77;1.57;;;7.90;99.90;;;;;;5036339;28;20703;-65
2021/12/05 15:35:35;;;;;;;5.40;1.20;;;8.00;99.90;;;;;;5049055;28;21531;-65
2021/12/05 15:38:09;;;;;;;6.07;1.30;;;7.90;99.90;;;;;;5018908;28;20698;-65
2021/12/05 15:40:38;;;;;;;7.87;1.53;;;7.90;99.90;;;;;;5044856;28;20217;-65
2021/12/05 15:43:24;;;;;;;6.13;1.13;;;7.90;99.90;;;;;;5035983;28;20185;-65
2021/12/05 15:45:54;;;;;;;5.30;1.00;;;7.90;99.90;;;;;;5019026;28;20216;-65
2021/12/05 15:48:29;;;;;;;9.87;1.33;;;7.80;99.90;;;;;;5036517;28;20174;-65
2021/12/05 15:50:56;;;;;;;5.67;1.20;;;7.80;99.90;;;;;;5036546;28;20192;-65
2021/12/05 15:53:23;;;;;;;8.97;1.63;;;7.80;99.90;;;;;;5033322;28;20178;-65
2021/12/05 15:55:57;;;;;;;6.80;1.40;;;7.80;99.90;;;;;;5033576;28;20643;-65
2021/12/05 15:58:38;;;;;;;5.33;0.97;;;8.20;99.90;;;;;;5033383;28;20178;-65
2021/12/05 16:01:12;;;;;;;7.20;1.20;;;7.90;99.90;;;;;;5033077;28;20182;-65
2021/12/05 16:04:00;;;;;;;11.07;1.73;;;7.80;99.90;;;;;;5031472;28;20177;-65
2021/12/05 16:06:38;;;;;;;8.50;1.37;;;7.80;99.90;;;;;;5032998;28;20210;-65
2021/12/05 16:09:23;;;;;;;13.03;1.80;;;7.80;99.90;;;;;;5033042;28;20679;-65
2021/12/05 16:11:50;;;;;;;6.37;1.00;;;7.80;99.90;;;;;;5033136;28;20166;-65
2021/12/05 16:14:30;;;;;;;11.73;1.57;;;7.80;99.90;;;;;;5032878;28;20189;-64
2021/12/05 16:16:57;;;;;;;8.07;1.70;;;7.80;99.90;;;;;;5033214;28;20193;-67
2021/12/05 16:19:22;;;;;;;6.60;1.97;;;7.80;99.90;;;;;;5032984;28;20571;-62
2021/12/05 16:21:48;;;;;;;5.80;1.40;;;7.80;99.90;;;;;;5031840;28;20178;-63
2021/12/05 16:24:20;;;;;;;9.00;2.30;;;7.70;99.90;;;;;;5033098;28;20177;-66
2021/12/05 16:26:48;;;;;;;4.50;1.30;;;7.70;99.90;;;;;;5030412;28;20229;-67
2021/12/05 16:29:22;;;;;;;9.63;1.50;;;7.70;99.90;;;;;;5030522;28;20219;-66
2021/12/05 16:31:53;;;;;;;8.37;1.40;;;7.70;99.90;;;;;;5032929;28;20191;-66
2021/12/05 16:34:43;;;;;;;8.70;2.00;;;7.70;99.90;;;;;;5032690;28;20645;-67
2021/12/05 16:37:10;;;;;;;7.30;1.57;;;7.70;99.90;;;;;;5032637;28;20181;-67
2021/12/05 16:39:43;;;;;;;9.87;2.00;;;7.70;99.90;;;;;;5014606;28;20264;-66
2021/12/05 16:42:18;;;;;;;4.73;1.50;;;7.70;99.90;;;;;;5032503;28;20233;-66
2021/12/05 16:44:53;;;;;;;4.50;1.50;;;7.70;99.90;;;;;;5032491;28;20174;-66
2021/12/05 16:47:25;;;;;;;7.90;1.50;;;7.70;99.90;;;;;;5032711;28;20478;-67
2021/12/05 16:49:53;;;;;;;8.17;2.47;;;7.70;99.90;;;;;;5032462;28;20208;-66
2021/12/05 16:52:28;;;;;;;9.73;2.87;;;7.60;99.90;;;;;;5031764;28;20186;-67
2021/12/05 16:54:58;;;;;;;12.20;2.80;;;7.70;99.90;;;;;;5031446;28;20197;-67
2021/12/05 16:57:30;;;;;;;8.23;2.03;;;7.70;99.90;;;;;;5030994;28;20174;-67
2021/12/05 17:00:04;;;;;;;16.03;5.93;;;7.70;99.90;;;;;;5028483;28;20196;-67
2021/12/05 17:02:41;;;;;;;23.00;7.83;;;7.60;99.90;;;;;;5031247;28;20177;-67
2021/12/05 17:05:15;;;;;;;39.17;13.83;;;7.60;99.90;;;;;;5035773;28;20208;-67
2021/12/05 17:07:42;;;;;;;22.33;6.37;;;7.70;99.90;;;;;;5035424;28;20189;-67
2021/12/05 17:10:37;;;;;;;21.07;7.70;;;7.70;99.90;;;;;;5035361;28;20248;-67
2021/12/05 17:13:20;;;;;;;26.63;8.77;;;7.70;99.90;;;;;;5017352;28;20256;-67
2021/12/05 17:16:04;;;;;;;9.97;3.30;;;7.70;99.90;;;;;;5031078;28;20253;-66
2021/12/05 17:18:38;;;;;;;7.35;2.83;;;7.70;99.90;;;;;;5030586;28;20448;-69
2021/12/05 17:21:12;;;;;;;12.23;3.20;;;7.70;99.90;;;;;;5030232;28;20177;-68
2021/12/05 17:23:43;;;;;;;10.73;2.90;;;7.70;99.90;;;;;;5031635;28;20181;-67
2021/12/05 17:26:16;;;;;;;7.70;2.07;;;7.70;99.90;;;;;;5031438;28;20217;-67
2021/12/05 17:28:53;;;;;;;9.83;2.50;;;7.60;99.90;;;;;;5031202;28;20162;-68
2021/12/05 17:31:28;;;;;;;11.53;2.10;;;7.60;99.90;;;;;;5031641;28;20258;-68
2021/12/05 17:33:57;;;;;;;6.33;1.67;;;7.60;99.90;;;;;;5031712;28;20169;-68
2021/12/05 17:36:26;;;;;;;7.03;1.70;;;7.50;99.90;;;;;;5031027;28;20170;-67
2021/12/05 17:38:56;;;;;;;7.73;2.03;;;7.50;99.90;;;;;;5030943;28;20174;-67
2021/12/05 17:41:24;;;;;;;10.80;2.27;;;7.40;99.90;;;;;;5030820;28;20720;-68
2021/12/05 17:43:49;;;;;;;9.30;1.90;;;7.40;99.90;;;;;;5030378;28;20177;-67
2021/12/05 17:46:16;;;;;;;7.17;2.07;;;7.30;99.90;;;;;;5030973;28;20684;-67
2021/12/05 17:48:42;;;;;;;9.97;2.07;;;7.30;99.90;;;;;;5030018;28;20181;-67
2021/12/05 17:51:08;;;;;;;13.33;3.00;;;7.30;99.90;;;;;;5030633;28;20182;-67
2021/12/05 17:53:37;;;;;;;7.80;2.20;;;7.30;99.90;;;;;;5031142;28;20168;-67
2021/12/05 17:56:13;;;;;;;8.70;1.90;;;7.30;99.90;;;;;;5028576;28;20209;-67
2021/12/05 17:59:04;;;;;;;10.03;2.00;;;7.40;99.90;;;;;;5030064;28;20239;-67
2021/12/05 18:04:09;;;;;;;9.40;2.23;;;7.30;99.90;;;;;;5030128;28;20651;-67
2021/12/05 18:06:35;;;;;;;11.07;2.53;;;7.30;99.90;;;;;;5030258;28;20213;-67
2021/12/05 18:09:04;;;;;;;15.63;6.47;;;7.20;99.90;;;;;;5031110;28;20493;-67
2021/12/05 18:11:32;;;;;;;7.90;2.67;;;7.20;99.90;;;;;;5031043;28;20235;-68
2021/12/05 18:13:59;;;;;;;14.77;2.80;;;7.10;99.90;;;;;;5030321;28;20686;-67
2021/12/05 18:16:27;;;;;;;12.50;4.10;;;7.10;99.90;;;;;;5030137;28;20174;-67
2021/12/05 18:18:59;;;;;;;8.17;2.60;;;7.00;99.90;;;;;;5030961;28;20687;-67
2021/12/05 18:21:27;;;;;;;15.47;2.67;;;7.00;99.90;;;;;;5030749;28;20173;-67
2021/12/05 18:23:54;;;;;;;6.63;2.37;;;6.90;99.90;;;;;;5012603;28;20717;-67
2021/12/05 18:26:22;;;;;;;5.57;2.07;;;6.90;99.90;;;;;;5013017;28;20206;-66
2021/12/05 18:28:49;;;;;;;9.73;1.70;;;6.80;99.90;;;;;;5030185;28;20166;-66
2021/12/05 18:31:19;;;;;;;6.33;1.93;;;6.80;99.90;;;;;;5030636;28;20166;-66
2021/12/05 18:33:50;;;;;;;8.73;2.83;;;6.80;99.90;;;;;;5030119;28;20257;-67
2021/12/05 18:36:16;;;;;;;6.30;2.43;;;6.70;99.90;;;;;;5030667;28;20277;-67
2021/12/05 18:38:42;;;;;;;11.27;2.07;;;6.70;99.90;;;;;;5029981;28;20391;-67
2021/12/05 18:41:11;;;;;;;10.70;2.37;;;6.70;99.90;;;;;;5030385;28;20758;-66
2021/12/05 18:43:39;;;;;;;20.50;7.03;;;6.70;99.90;;;;;;5030392;28;20166;-67